Time;durP1;ratioP1;P1;durP2;ratioP2;P2;SDS_P1;SDS_P2;PMS_P1;PMS_P2;Temp;Humidity;BMP_temperature;BMP_pressure;BME280_temperature;BME280_humidity;BME280_pressure;Samples;Min_cycle;Max_cycle;Signal;HPM_P1;HPM_P2
2021/08/16 00:00:21;;;;;;;;;;;18.10;99.90;;;;;;5065679;28;19920;-57
2021/08/16 00:03:11;;;;;;;;;;;18.00;99.90;;;;;;5071456;28;19920;-57
2021/08/16 00:06:00;;;;;;;;;;;18.00;99.90;;;;;;5071806;28;19936;-56
2021/08/16 00:08:49;;;;;;;;;;;18.00;99.90;;;;;;5074384;28;20014;-59
2021/08/16 00:11:39;;;;;;;;;;;18.10;99.90;;;;;;5071360;28;20379;-57
2021/08/16 00:14:29;;;;;;;;;;;18.10;99.90;;;;;;5073356;28;19920;-57
2021/08/16 00:17:18;;;;;;;;;;;18.20;99.90;;;;;;5065136;28;19924;-57
2021/08/16 00:23:20;;;;;;;;;;;18.30;99.90;;;;;;5074559;28;19936;-56
2021/08/16 00:26:09;;;;;;;;;;;18.30;99.90;;;;;;5072202;28;19928;-57
2021/08/16 00:32:12;;;;;;;;;;;18.20;99.90;;;;;;5067499;28;19928;-59
2021/08/16 00:35:01;;;;;;;;;;;18.10;99.90;;;;;;5071292;28;21150;-59
2021/08/16 00:41:02;;;;;;;;;;;18.00;99.90;;;;;;5070741;28;19950;-59
2021/08/16 00:43:51;;;;;;;;;;;18.00;99.90;;;;;;5069837;28;19924;-57
2021/08/16 00:46:40;;;;;;;;;;;18.00;99.90;;;;;;5065050;28;19920;-58
2021/08/16 00:49:31;;;;;;;;;;;18.00;99.90;;;;;;5067816;28;19928;-57
2021/08/16 00:52:21;;;;;;;;;;;18.00;99.90;;;;;;5071271;28;19924;-57
2021/08/16 00:55:11;;;;;;;;;;;18.10;99.90;;;;;;5069852;28;19920;-57
2021/08/16 00:58:00;;;;;;;;;;;18.20;99.90;;;;;;5072303;28;20383;-57
2021/08/16 01:00:52;;;;;;;;;;;18.20;99.90;;;;;;5068619;28;20067;-57
2021/08/16 01:03:41;;;;;;;;;;;18.00;99.90;;;;;;5071575;28;19921;-57
2021/08/16 01:06:31;;;;;;;;;;;18.10;99.90;;;;;;5071874;28;19926;-57
2021/08/16 01:09:20;;;;;;;;;;;18.00;99.90;;;;;;5070037;28;19931;-57
2021/08/16 01:12:09;;;;;;;;;;;17.90;99.90;;;;;;5070779;28;19920;-57
2021/08/16 01:14:58;;;;;;;;;;;17.90;99.90;;;;;;5070037;28;20409;-57
2021/08/16 01:17:47;;;;;;;;;;;17.90;99.90;;;;;;5069540;28;19990;-56
2021/08/16 01:20:36;;;;;;;;;;;17.90;99.90;;;;;;5073214;28;19930;-57
2021/08/16 01:23:27;;;;;;;;;;;17.90;99.90;;;;;;5074393;28;19928;-58
2021/08/16 01:26:15;;;;;;;;;;;17.90;99.90;;;;;;5069606;28;19920;-57
2021/08/16 01:29:15;;;;;;;;;;;17.90;99.90;;;;;;5074414;28;19928;-57
2021/08/16 01:32:17;;;;;;;;;;;17.80;99.90;;;;;;5066263;28;20311;-58
2021/08/16 01:35:06;;;;;;;;;;;17.90;99.90;;;;;;5068394;28;19987;-58
2021/08/16 01:37:54;;;;;;;;;;;17.80;99.90;;;;;;5071477;28;20399;-58
2021/08/16 01:40:43;;;;;;;;;;;17.80;99.90;;;;;;5069478;28;20264;-58
2021/08/16 01:43:31;;;;;;;;;;;17.80;99.90;;;;;;5072025;28;19920;-57
2021/08/16 01:46:22;;;;;;;;;;;17.80;99.90;;;;;;5064475;28;19989;-58
2021/08/16 01:49:11;;;;;;;;;;;17.80;99.90;;;;;;5072509;28;19927;-58
2021/08/16 01:52:00;;;;;;;;;;;17.80;99.90;;;;;;5076980;28;19999;-57
2021/08/16 01:54:49;;;;;;;;;;;17.70;99.90;;;;;;5071932;28;19928;-58
2021/08/16 01:57:37;;;;;;;;;;;17.70;99.90;;;;;;5070943;28;20332;-57
2021/08/16 02:00:26;;;;;;;;;;;17.60;99.90;;;;;;5064845;28;20304;-57
2021/08/16 02:03:16;;;;;;;;;;;17.70;99.90;;;;;;5075006;28;20319;-57
2021/08/16 02:06:05;;;;;;;;;;;17.60;99.90;;;;;;5073377;28;19929;-57
2021/08/16 02:08:53;;;;;;;;;;;17.60;99.90;;;;;;5073002;28;19920;-57
2021/08/16 02:11:44;;;;;;;;;;;17.50;99.90;;;;;;5070949;28;20372;-57
2021/08/16 02:14:32;;;;;;;;;;;17.50;99.90;;;;;;5072474;28;19920;-57
2021/08/16 02:17:21;;;;;;;;;;;17.40;99.90;;;;;;5067563;28;19924;-57
2021/08/16 02:20:17;;;;;;;;;;;17.40;99.90;;;;;;5072835;28;20327;-57
2021/08/16 02:23:06;;;;;;;;;;;17.40;99.90;;;;;;5072410;28;20009;-57
2021/08/16 02:25:54;;;;;;;;;;;17.40;99.90;;;;;;5075726;28;19928;-57
2021/08/16 02:28:43;;;;;;;;;;;17.30;99.90;;;;;;5080765;28;19920;-58
2021/08/16 02:31:32;;;;;;;;;;;17.30;99.90;;;;;;5085176;28;19946;-58
2021/08/16 02:34:20;;;;;;;;;;;17.30;99.90;;;;;;5076995;28;20325;-58
2021/08/16 02:37:10;;;;;;;;;;;17.20;99.90;;;;;;5063565;28;19927;-58
2021/08/16 02:39:58;;;;;;;;;;;17.20;99.90;;;;;;5073380;28;19963;-58
2021/08/16 02:42:47;;;;;;;;;;;17.20;99.90;;;;;;5065237;28;19931;-58
2021/08/16 02:45:35;;;;;;;;;;;17.20;99.90;;;;;;5064978;28;19920;-57
2021/08/16 02:48:24;;;;;;;;;;;17.20;99.90;;;;;;5072601;28;19920;-57
2021/08/16 02:51:13;;;;;;;;;;;17.30;99.90;;;;;;5073011;28;20479;-58
2021/08/16 02:54:03;;;;;;;;;;;17.30;99.90;;;;;;5071390;28;19928;-57
2021/08/16 02:56:52;;;;;;;;;;;17.20;99.90;;;;;;5070778;28;20277;-57
2021/08/16 02:59:40;;;;;;;;;;;17.20;99.90;;;;;;5074077;28;19927;-57
2021/08/16 03:02:29;;;;;;;;;;;17.20;99.90;;;;;;5074665;28;19986;-57
2021/08/16 03:05:17;;;;;;;;;;;17.20;99.90;;;;;;5073705;28;20368;-59
2021/08/16 03:08:06;;;;;;;;;;;17.20;99.90;;;;;;5075305;28;19920;-57
2021/08/16 03:10:56;;;;;;;;;;;17.20;99.90;;;;;;5053668;28;19920;-59
2021/08/16 03:13:44;;;;;;;;;;;17.20;99.90;;;;;;5051325;28;19982;-56
2021/08/16 03:16:33;;;;;;;;;;;17.20;99.90;;;;;;5046166;28;19939;-57
2021/08/16 03:19:22;;;;;;;;;;;17.20;99.90;;;;;;5051439;28;19921;-57
2021/08/16 03:22:11;;;;;;;;;;;17.20;99.90;;;;;;5052362;28;19921;-57
2021/08/16 03:24:59;;;;;;;;;;;17.20;99.90;;;;;;5053751;28;19943;-57
2021/08/16 03:27:51;;;;;;;;;;;17.20;99.90;;;;;;5053906;28;19920;-57
2021/08/16 03:30:41;;;;;;;;;;;17.10;99.90;;;;;;5043639;28;19920;-58
2021/08/16 03:33:30;;;;;;;;;;;17.10;99.90;;;;;;5050516;28;19975;-57
2021/08/16 03:36:18;;;;;;;;;;;17.20;99.90;;;;;;5060961;28;19931;-57
2021/08/16 03:39:08;;;;;;;;;;;17.20;99.90;;;;;;5064395;28;20022;-60
2021/08/16 03:41:57;;;;;;;;;;;17.20;99.90;;;;;;5077168;28;19942;-60
2021/08/16 03:44:48;;;;;;;;;;;17.10;99.90;;;;;;5070679;28;19928;-57
2021/08/16 03:47:37;;;;;;;;;;;17.10;99.90;;;;;;5076005;28;19928;-57
2021/08/16 03:50:27;;;;;;;;;;;17.20;99.90;;;;;;5077393;28;20015;-58
2021/08/16 03:53:17;;;;;;;;;;;17.20;99.90;;;;;;5078187;28;19928;-57
2021/08/16 03:56:10;;;;;;;;;;;17.30;99.90;;;;;;5077460;28;20018;-57
2021/08/16 03:58:59;;;;;;;;;;;17.40;99.90;;;;;;5065172;28;19934;-57
2021/08/16 04:01:49;;;;;;;;;;;17.40;99.90;;;;;;5063890;28;19958;-58
2021/08/16 04:04:38;;;;;;;;;;;17.40;99.90;;;;;;5075975;28;19920;-57
2021/08/16 04:07:30;;;;;;;;;;;17.50;99.90;;;;;;5071177;28;19928;-57
2021/08/16 04:10:19;;;;;;;;;;;17.40;99.90;;;;;;5053046;28;19931;-58
2021/08/16 04:13:08;;;;;;;;;;;17.50;99.90;;;;;;5056447;28;19921;-57
2021/08/16 04:15:57;;;;;;;;;;;17.50;99.90;;;;;;5046412;28;19925;-57
2021/08/16 04:18:47;;;;;;;;;;;17.60;99.90;;;;;;5051241;28;19927;-57
2021/08/16 04:21:35;;;;;;;;;;;17.70;99.90;;;;;;5049948;28;19921;-58
2021/08/16 04:24:24;;;;;;;;;;;17.80;99.90;;;;;;5053777;28;19921;-60
2021/08/16 04:27:12;;;;;;;;;;;17.80;99.90;;;;;;5055316;28;19921;-56
2021/08/16 04:30:01;;;;;;;;;;;17.90;99.90;;;;;;5057560;28;19955;-57
2021/08/16 04:32:49;;;;;;;;;;;17.90;99.90;;;;;;5055547;28;19932;-57
2021/08/16 04:35:40;;;;;;;;;;;17.90;99.90;;;;;;5052141;28;19976;-57
2021/08/16 04:38:28;;;;;;;;;;;17.90;99.90;;;;;;5055471;28;19929;-57
2021/08/16 04:41:17;;;;;;;;;;;17.90;99.90;;;;;;5057149;28;19932;-59
2021/08/16 04:44:08;;;;;;;;;;;17.90;99.90;;;;;;5055595;28;19921;-57
2021/08/16 04:46:57;;;;;;;;;;;17.90;99.90;;;;;;5054926;28;19921;-60
2021/08/16 04:49:45;;;;;;;;;;;18.00;99.90;;;;;;5059333;28;19920;-57
2021/08/16 04:52:36;;;;;;;;;;;18.10;99.90;;;;;;5054095;28;20369;-58
2021/08/16 04:55:24;;;;;;;;;;;18.20;99.90;;;;;;5053300;28;20019;-57
2021/08/16 04:58:13;;;;;;;;;;;18.30;99.90;;;;;;5057871;28;19921;-58
2021/08/16 05:01:03;;;;;;;;;;;18.30;99.90;;;;;;5061255;28;19905;-58
2021/08/16 05:03:52;;;;;;;;;;;18.30;99.90;;;;;;5066182;28;19973;-58
2021/08/16 05:06:42;;;;;;;;;;;18.30;99.90;;;;;;5054988;28;19929;-57
2021/08/16 05:09:32;;;;;;;;;;;18.30;99.90;;;;;;5052454;28;19921;-58
2021/08/16 05:12:22;;;;;;;;;;;18.30;99.90;;;;;;5054159;28;19960;-57
2021/08/16 05:15:11;;;;;;;;;;;18.30;99.90;;;;;;5044004;28;19930;-57
2021/08/16 05:18:02;;;;;;;;;;;18.20;99.90;;;;;;5052696;28;19927;-57
2021/08/16 05:20:52;;;;;;;;;;;18.30;99.90;;;;;;5049797;28;20687;-57
2021/08/16 05:26:55;;;;;;;;;;;18.30;99.90;;;;;;5048068;28;19928;-57
2021/08/16 05:29:43;;;;;;;;;;;18.50;99.90;;;;;;5053334;28;19924;-57
2021/08/16 05:32:36;;;;;;;;;;;18.50;99.90;;;;;;5050786;28;19920;-58
2021/08/16 05:35:24;;;;;;;;;;;18.60;99.90;;;;;;5053939;28;20099;-58
2021/08/16 05:38:13;;;;;;;;;;;18.70;99.90;;;;;;5053262;28;19928;-57
2021/08/16 05:41:02;;;;;;;;;;;18.90;99.90;;;;;;5051542;28;20007;-57
2021/08/16 05:43:53;;;;;;;;;;;19.20;99.90;;;;;;5052465;28;19924;-58
2021/08/16 05:46:44;;;;;;;;;;;19.40;99.90;;;;;;5050712;28;19921;-58
2021/08/16 05:52:45;;;;;;;;;;;19.60;99.90;;;;;;5055141;28;19960;-57
2021/08/16 05:55:34;;;;;;;;;;;19.70;99.90;;;;;;5054961;28;20264;-57
2021/08/16 05:58:23;;;;;;;;;;;19.70;99.90;;;;;;5050450;28;19921;-58
2021/08/16 06:01:14;;;;;;;;;;;19.70;99.90;;;;;;5042664;28;20400;-57
2021/08/16 06:04:02;;;;;;;;;;;19.80;99.90;;;;;;5050144;28;20357;-57
2021/08/16 06:06:52;;;;;;;;;;;19.80;99.90;;;;;;5052438;28;19967;-58
2021/08/16 06:09:40;;;;;;;;;;;19.90;99.90;;;;;;5064614;28;19925;-58
2021/08/16 06:12:29;;;;;;;;;;;19.90;99.90;;;;;;5068195;28;19928;-58
2021/08/16 06:15:18;;;;;;;;;;;20.00;99.90;;;;;;5064400;28;20382;-57
2021/08/16 06:18:08;;;;;;;;;;;20.00;99.90;;;;;;5071166;28;19951;-58
2021/08/16 06:20:57;;;;;;;;;;;20.10;99.90;;;;;;5069062;28;19928;-57
2021/08/16 06:24:10;;;;;;;;;;;20.20;99.90;;;;;;5073142;28;20019;-57
2021/08/16 06:26:59;;;;;;;;;;;20.20;99.90;;;;;;5070558;28;19930;-57
2021/08/16 06:29:48;;;;;;;;;;;20.40;99.90;;;;;;5071631;28;19953;-57
2021/08/16 06:32:37;;;;;;;;;;;20.40;99.90;;;;;;5079807;28;19974;-57
2021/08/16 06:35:27;;;;;;;;;;;20.60;99.90;;;;;;5088208;28;19908;-57
2021/08/16 06:38:22;;;;;;;;;;;20.70;99.90;;;;;;5089073;28;19925;-57
2021/08/16 06:41:11;;;;;;;;;;;20.70;99.90;;;;;;5083240;28;20000;-56
2021/08/16 06:44:00;;;;;;;;;;;20.80;99.90;;;;;;5091644;28;19924;-59
2021/08/16 06:46:48;;;;;;;;;;;20.80;99.90;;;;;;5084641;28;19927;-58
2021/08/16 06:49:41;;;;;;;;;;;21.00;99.90;;;;;;5097404;28;19959;-58
2021/08/16 06:52:31;;;;;;;;;;;21.10;99.90;;;;;;5090828;28;19957;-72
2021/08/16 06:55:19;;;;;;;;;;;21.10;99.90;;;;;;5115375;27;19920;-71
2021/08/16 06:58:08;;;;;;;;;;;21.20;99.90;;;;;;5114801;28;20441;-73
2021/08/16 07:00:56;;;;;;;;;;;21.20;99.90;;;;;;5082291;28;19927;-73
2021/08/16 07:03:53;;;;;;;;;;;21.10;99.90;;;;;;5120425;27;19927;-72
2021/08/16 07:07:01;;;;;;;;;;;21.10;99.90;;;;;;5087969;28;19920;-73
2021/08/16 07:09:53;;;;;;;;;;;21.20;99.90;;;;;;5093501;28;19924;-73
2021/08/16 07:12:48;;;;;;;;;;;21.30;99.90;;;;;;5074184;28;20669;-73
2021/08/16 07:15:39;;;;;;;;;;;21.40;99.90;;;;;;5091523;28;19944;-73
2021/08/16 07:18:27;;;;;;;;;;;21.30;99.90;;;;;;5102869;27;19932;-72
2021/08/16 07:21:16;;;;;;;;;;;21.30;99.90;;;;;;5077445;28;19931;-72
2021/08/16 07:24:05;;;;;;;;;;;21.30;99.90;;;;;;5085714;28;19931;-74
2021/08/16 07:26:57;;;;;;;;;;;21.30;99.90;;;;;;5095398;28;19930;-73
2021/08/16 07:29:46;;;;;;;;;;;21.40;99.90;;;;;;5083774;28;20041;-72
2021/08/16 07:32:34;;;;;;;;;;;21.40;99.90;;;;;;5074058;28;19932;-72
2021/08/16 07:35:23;;;;;;;;;;;21.80;99.90;;;;;;5074845;28;20372;-72
2021/08/16 07:38:12;;;;;;;;;;;23.60;99.90;;;;;;5081475;28;19929;-72
2021/08/16 07:41:01;;;;;;;;;;;26.70;99.90;;;;;;5086172;28;19996;-71
2021/08/16 07:43:51;;;;;;;;;;;29.10;99.50;;;;;;5100283;27;20344;-71
2021/08/16 07:46:41;;;;;;;;;;;31.00;95.80;;;;;;5072249;28;19992;-71
2021/08/16 07:49:30;;;;;;;;;;;32.20;91.40;;;;;;5073424;28;19931;-72
2021/08/16 07:52:44;;;;;;;;;;;30.80;93.40;;;;;;5075082;28;19929;-71
2021/08/16 07:55:32;;;;;;;;;;;29.60;94.40;;;;;;5075075;28;20280;-72
2021/08/16 07:58:21;;;;;;;;;;;27.50;95.90;;;;;;5072331;28;19924;-71
2021/08/16 08:01:11;;;;;;;;;;;26.70;97.60;;;;;;5070397;28;19990;-67
2021/08/16 08:04:00;;;;;;;;;;;28.30;95.70;;;;;;5070633;28;19932;-67
2021/08/16 08:06:49;;;;;;;;;;;30.80;91.70;;;;;;5071010;28;19925;-67
2021/08/16 08:09:37;;;;;;;;;;;31.80;90.10;;;;;;5073881;28;19925;-67
2021/08/16 08:12:26;;;;;;;;;;;32.50;87.20;;;;;;5075814;28;20352;-68
2021/08/16 08:15:15;;;;;;;;;;;33.50;84.10;;;;;;5068300;28;19963;-67
2021/08/16 08:18:07;;;;;;;;;;;34.30;78.30;;;;;;5072343;28;19928;-67
2021/08/16 08:20:55;;;;;;;;;;;32.80;79.70;;;;;;5075292;28;19931;-67
2021/08/16 08:24:10;;;;;;;;;;;30.60;86.70;;;;;;5079528;28;19924;-67
2021/08/16 08:26:59;;;;;;;;;;;28.90;90.40;;;;;;5071008;28;19933;-68
2021/08/16 08:29:53;;;;;;;;;;;25.90;95.70;;;;;;5072013;28;19928;-68
2021/08/16 08:32:46;;;;;;;;;;;24.20;99.50;;;;;;5083587;28;19931;-68
2021/08/16 08:35:36;;;;;;;;;;;23.30;99.90;;;;;;5088477;28;19943;-68
2021/08/16 08:38:24;;;;;;;;;;;23.30;99.90;;;;;;5085317;28;19932;-68
2021/08/16 08:41:14;;;;;;;;;;;23.50;99.90;;;;;;5086505;28;20268;-69
2021/08/16 08:44:10;;;;;;;;;;;23.40;99.90;;;;;;5088127;28;19927;-68
2021/08/16 08:46:59;;;;;;;;;;;24.60;99.90;;;;;;5070864;28;20019;-67
2021/08/16 08:49:47;;;;;;;;;;;26.40;97.30;;;;;;5082077;28;20293;-68
2021/08/16 08:52:43;;;;;;;;;;;28.50;93.60;;;;;;5084065;28;19924;-69
2021/08/16 08:55:34;;;;;;;;;;;29.00;90.30;;;;;;5085217;28;19928;-69
2021/08/16 08:58:35;;;;;;;;;;;26.90;93.50;;;;;;5081683;28;19946;-69
2021/08/16 09:01:23;;;;;;;;;;;26.70;93.60;;;;;;5077256;28;19929;-69
2021/08/16 09:04:14;;;;;;;;;;;26.70;94.00;;;;;;5095079;28;19971;-68
2021/08/16 09:07:04;;;;;;;;;;;26.20;94.30;;;;;;5092360;28;19997;-69
2021/08/16 09:09:55;;;;;;;;;;;27.70;91.60;;;;;;5092250;28;19924;-68
2021/08/16 09:12:44;;;;;;;;;;;28.90;90.10;;;;;;5109264;28;20060;-68
2021/08/16 09:16:07;;;;;;;;;;;30.30;86.60;;;;;;5090771;28;19924;-69
2021/08/16 09:18:56;;;;;;;;;;;33.00;74.60;;;;;;5087255;28;19963;-68
2021/08/16 09:21:47;;;;;;;;;;;33.10;67.60;;;;;;5094960;28;19925;-68
2021/08/16 09:24:36;;;;;;;;;;;34.30;59.50;;;;;;5089291;28;19964;-68
2021/08/16 09:27:27;;;;;;;;;;;33.80;58.00;;;;;;5072725;28;20360;-69
2021/08/16 09:30:16;;;;;;;;;;;33.90;57.30;;;;;;5084737;28;20007;-69
2021/08/16 09:33:12;;;;;;;;;;;32.80;58.70;;;;;;5091722;28;19977;-71
2021/08/16 09:36:01;;;;;;;;;;;32.20;59.40;;;;;;5077967;28;19924;-68
2021/08/16 09:38:49;;;;;;;;;;;31.00;62.80;;;;;;5086551;28;19931;-69
2021/08/16 09:41:38;;;;;;;;;;;31.40;62.80;;;;;;5092059;28;19928;-69
2021/08/16 09:44:28;;;;;;;;;;;30.40;63.10;;;;;;5101802;27;19925;-68
2021/08/16 09:47:24;;;;;;;;;;;29.10;67.70;;;;;;5091599;28;19932;-69
2021/08/16 09:50:13;;;;;;;;;;;28.80;66.90;;;;;;5111557;27;20019;-68
2021/08/16 09:53:04;;;;;;;;;;;27.40;69.80;;;;;;5077823;28;20286;-69
2021/08/16 09:55:53;;;;;;;;;;;26.00;75.90;;;;;;5079199;28;19931;-68
2021/08/16 09:58:43;;;;;;;;;;;24.80;80.40;;;;;;5073770;28;19924;-69
2021/08/16 10:01:35;;;;;;;;;;;24.20;83.70;;;;;;5075667;28;19924;-69
2021/08/16 10:04:24;;;;;;;;;;;23.90;86.10;;;;;;5079950;28;19999;-69
2021/08/16 10:07:15;;;;;;;;;;;24.30;87.80;;;;;;5102374;28;19998;-70
2021/08/16 10:10:09;;;;;;;;;;;24.90;88.80;;;;;;5091514;28;20299;-69
2021/08/16 10:13:23;;;;;;;;;;;25.40;86.50;;;;;;5077362;28;19924;-70
2021/08/16 10:16:14;;;;;;;;;;;25.00;85.40;;;;;;5066191;28;19924;-67
2021/08/16 10:19:05;;;;;;;;;;;24.80;87.50;;;;;;5086886;28;19936;-66
2021/08/16 10:21:57;;;;;;;;;;;25.10;88.10;;;;;;5083388;28;19928;-67
2021/08/16 10:24:46;;;;;;;;;;;25.40;86.90;;;;;;5086184;28;20013;-66
2021/08/16 10:27:35;;;;;;;;;;;26.10;81.00;;;;;;5078504;28;19933;-66
2021/08/16 10:30:23;;;;;;;;;;;27.20;76.10;;;;;;5071608;28;20379;-66
2021/08/16 10:33:13;;;;;;;;;;;27.00;77.00;;;;;;5077118;28;19967;-67
2021/08/16 10:36:03;;;;;;;;;;;25.80;80.10;;;;;;5069803;28;19929;-66
2021/08/16 10:39:04;;;;;;;;;;;25.00;82.90;;;;;;5081855;28;19932;-67
2021/08/16 10:41:52;;;;;;;;;;;24.60;86.30;;;;;;5087165;28;19925;-67
2021/08/16 10:44:43;;;;;;;;;;;24.10;86.50;;;;;;5098955;28;20063;-66
2021/08/16 10:47:33;;;;;;;;;;;24.20;87.40;;;;;;5072143;28;19928;-66
2021/08/16 10:50:22;;;;;;;;;;;24.20;88.10;;;;;;5076826;28;20015;-68
2021/08/16 10:53:14;;;;;;;;;;;24.40;88.20;;;;;;5074987;28;20018;-65
2021/08/16 10:56:03;;;;;;;;;;;24.80;87.10;;;;;;5077967;28;19924;-66
2021/08/16 10:58:52;;;;;;;;;;;24.80;84.90;;;;;;5100429;28;20387;-69
2021/08/16 11:01:44;;;;;;;;;;;24.80;85.70;;;;;;5071371;28;19932;-69
2021/08/16 11:04:51;;;;;;;;;;;24.90;86.50;;;;;;5075475;28;19924;-68
2021/08/16 11:07:41;;;;;;;;;;;24.50;87.00;;;;;;5072730;28;19925;-69
2021/08/16 11:10:43;;;;;;;;;;;24.60;87.50;;;;;;5074430;28;20260;-66
2021/08/16 11:13:34;;;;;;;;;;;24.40;85.60;;;;;;5102448;28;20282;-68
2021/08/16 11:16:23;;;;;;;;;;;24.70;84.70;;;;;;5066847;28;19981;-66
2021/08/16 11:19:14;;;;;;;;;;;24.60;86.00;;;;;;5075977;28;20372;-66
2021/08/16 11:22:05;;;;;;;;;;;24.20;87.70;;;;;;5077273;28;19955;-67
2021/08/16 11:24:53;;;;;;;;;;;24.20;89.70;;;;;;5079247;28;19930;-67
2021/08/16 11:27:45;;;;;;;;;;;24.20;90.40;;;;;;5076247;28;19925;-66
2021/08/16 11:30:35;;;;;;;;;;;24.20;90.70;;;;;;5083168;28;20260;-66
2021/08/16 11:33:24;;;;;;;;;;;24.40;90.90;;;;;;5094692;28;19969;-66
2021/08/16 11:36:13;;;;;;;;;;;24.30;88.90;;;;;;5087495;28;20403;-65
2021/08/16 11:39:02;;;;;;;;;;;23.90;86.70;;;;;;5093979;28;19981;-65
2021/08/16 11:41:56;;;;;;;;;;;23.70;87.80;;;;;;5087523;28;19932;-65
2021/08/16 11:44:55;;;;;;;;;;;23.70;86.00;;;;;;5092233;28;20351;-69
2021/08/16 11:47:45;;;;;;;;;;;23.70;86.90;;;;;;5094270;28;19924;-65
2021/08/16 11:50:35;;;;;;;;;;;23.60;85.20;;;;;;5093485;28;19924;-66
2021/08/16 11:53:24;;;;;;;;;;;23.60;86.50;;;;;;5092333;28;19931;-67
2021/08/16 11:56:12;;;;;;;;;;;23.60;90.20;;;;;;5092988;28;19924;-66
2021/08/16 11:59:01;;;;;;;;;;;23.80;90.40;;;;;;5093167;28;19935;-67
2021/08/16 12:01:51;;;;;;;;;;;23.70;90.20;;;;;;5084560;28;19924;-66
2021/08/16 12:04:41;;;;;;;;;;;23.80;90.80;;;;;;5093532;28;20050;-66
2021/08/16 12:07:30;;;;;;;;;;;23.80;89.90;;;;;;5094551;28;20065;-65
2021/08/16 12:10:20;;;;;;;;;;;23.80;90.10;;;;;;5079778;28;19924;-66
2021/08/16 12:13:13;;;;;;;;;;;23.80;90.90;;;;;;5085294;28;20324;-68
2021/08/16 12:16:30;;;;;;;;;;;24.30;90.10;;;;;;5104603;27;20057;-66
2021/08/16 12:19:21;;;;;;;;;;;24.50;87.50;;;;;;5084097;28;19952;-67
2021/08/16 12:22:11;;;;;;;;;;;24.90;85.20;;;;;;5094160;28;19925;-69
2021/08/16 12:25:01;;;;;;;;;;;24.70;87.00;;;;;;5081148;28;19938;-67
2021/08/16 12:27:56;;;;;;;;;;;24.20;87.20;;;;;;5074480;28;19978;-67
2021/08/16 12:30:44;;;;;;;;;;;23.50;87.80;;;;;;5068753;28;20462;-66
2021/08/16 12:33:33;;;;;;;;;;;23.40;87.00;;;;;;5074079;28;20339;-69
2021/08/16 12:36:25;;;;;;;;;;;23.60;86.10;;;;;;5071412;28;19947;-69
2021/08/16 12:39:15;;;;;;;;;;;23.30;85.70;;;;;;5075110;28;19932;-69
2021/08/16 12:42:27;;;;;;;;;;;23.40;86.00;;;;;;5079068;28;19925;-67
2021/08/16 12:45:16;;;;;;;;;;;23.60;84.90;;;;;;5073841;28;20453;-68
2021/08/16 12:48:07;;;;;;;;;;;23.70;85.00;;;;;;5074399;28;20018;-67
2021/08/16 12:50:59;;;;;;;;;;;23.50;84.60;;;;;;5073911;28;19931;-67
2021/08/16 12:53:49;;;;;;;;;;;23.40;84.60;;;;;;5075696;28;20022;-66
2021/08/16 12:56:40;;;;;;;;;;;23.40;84.10;;;;;;5071292;28;19928;-66
2021/08/16 12:59:28;;;;;;;;;;;23.70;83.20;;;;;;5088015;28;20277;-70
2021/08/16 13:02:23;;;;;;;;;;;23.80;83.10;;;;;;5071514;28;19932;-67
2021/08/16 13:05:12;;;;;;;;;;;24.10;82.50;;;;;;5074810;28;20327;-67
2021/08/16 13:08:03;;;;;;;;;;;24.00;82.00;;;;;;5073953;28;19935;-67
2021/08/16 13:10:53;;;;;;;;;;;23.90;81.00;;;;;;5056789;28;20356;-67
2021/08/16 13:13:43;;;;;;;;;;;23.70;81.80;;;;;;5056244;28;19932;-67
2021/08/16 13:16:33;;;;;;;;;;;23.60;82.30;;;;;;5048722;28;19929;-67
2021/08/16 13:19:27;;;;;;;;;;;23.70;82.10;;;;;;5051662;28;19924;-68
2021/08/16 13:22:16;;;;;;;;;;;23.60;82.80;;;;;;5056804;28;19925;-67
2021/08/16 13:25:05;;;;;;;;;;;23.50;83.70;;;;;;5051975;28;20012;-69
2021/08/16 13:27:55;;;;;;;;;;;23.70;84.40;;;;;;5054216;28;19928;-67
2021/08/16 13:30:44;;;;;;;;;;;24.00;84.20;;;;;;5055462;28;19929;-67
2021/08/16 13:33:32;;;;;;;;;;;24.20;83.60;;;;;;5053708;28;19924;-67
2021/08/16 13:36:23;;;;;;;;;;;24.50;83.50;;;;;;5055542;28;20018;-67
2021/08/16 13:39:11;;;;;;;;;;;24.70;83.00;;;;;;5056753;28;19925;-69
2021/08/16 13:42:00;;;;;;;;;;;24.30;83.00;;;;;;5051759;28;19940;-68
2021/08/16 13:44:50;;;;;;;;;;;24.00;83.80;;;;;;5057776;28;20738;-66
2021/08/16 13:47:39;;;;;;;;;;;23.90;84.10;;;;;;5056798;28;19925;-68
2021/08/16 13:50:28;;;;;;;;;;;23.90;84.20;;;;;;5057533;28;19924;-67
2021/08/16 13:53:17;;;;;;;;;;;23.70;84.60;;;;;;5056737;28;19932;-67
2021/08/16 13:56:05;;;;;;;;;;;23.70;85.30;;;;;;5054921;28;20384;-66
2021/08/16 13:58:54;;;;;;;;;;;23.60;84.90;;;;;;5065826;28;20339;-67
2021/08/16 14:01:44;;;;;;;;;;;23.80;84.70;;;;;;5048719;28;19925;-66
2021/08/16 14:04:33;;;;;;;;;;;24.10;84.60;;;;;;5053955;28;20308;-66
2021/08/16 14:07:22;;;;;;;;;;;24.00;84.90;;;;;;5054795;28;19986;-66
2021/08/16 14:10:12;;;;;;;;;;;23.90;84.90;;;;;;5058246;28;19972;-70
2021/08/16 14:13:01;;;;;;;;;;;23.60;84.80;;;;;;5054847;28;19925;-70
2021/08/16 14:15:51;;;;;;;;;;;23.60;85.80;;;;;;5032118;28;19935;-67
2021/08/16 14:18:42;;;;;;;;;;;23.70;85.10;;;;;;5065638;28;19925;-68
2021/08/16 14:21:32;;;;;;;;;;;23.80;84.90;;;;;;5057365;28;19925;-68
2021/08/16 14:24:21;;;;;;;;;;;23.80;83.50;;;;;;5071569;28;20376;-67
2021/08/16 14:27:09;;;;;;;;;;;23.80;83.10;;;;;;5053171;28;19928;-67
2021/08/16 14:29:58;;;;;;;;;;;23.70;82.50;;;;;;5061502;28;19924;-67
2021/08/16 14:32:46;;;;;;;;;;;23.60;83.60;;;;;;5054779;28;19931;-67
2021/08/16 14:35:36;;;;;;;;;;;23.50;84.60;;;;;;5056492;28;19925;-67
2021/08/16 14:38:25;;;;;;;;;;;23.60;84.10;;;;;;5057477;28;20361;-67
2021/08/16 14:41:17;;;;;;;;;;;23.90;84.20;;;;;;5042316;28;19932;-66
2021/08/16 14:44:07;;;;;;;;;;;24.00;83.40;;;;;;5058628;28;20011;-66
2021/08/16 14:46:56;;;;;;;;;;;24.20;82.10;;;;;;5053117;28;19947;-67
2021/08/16 14:49:45;;;;;;;;;;;24.10;81.30;;;;;;5052536;28;20035;-67
2021/08/16 14:52:36;;;;;;;;;;;24.00;81.90;;;;;;5050907;28;20388;-68
2021/08/16 14:55:24;;;;;;;;;;;24.00;83.10;;;;;;5070595;28;20373;-66
2021/08/16 14:58:13;;;;;;;;;;;23.80;82.40;;;;;;5055653;28;20039;-67
2021/08/16 15:01:02;;;;;;;;;;;23.50;81.90;;;;;;5058654;28;19925;-67
2021/08/16 15:03:51;;;;;;;;;;;23.30;83.10;;;;;;5055921;28;19925;-66
2021/08/16 15:06:41;;;;;;;;;;;23.30;83.60;;;;;;5063096;28;19928;-67
2021/08/16 15:09:31;;;;;;;;;;;23.30;84.30;;;;;;5070099;28;19925;-67
2021/08/16 15:12:20;;;;;;;;;;;23.20;84.40;;;;;;5076122;28;20383;-68
2021/08/16 15:15:10;;;;;;;;;;;23.20;85.20;;;;;;5077490;28;20028;-65
2021/08/16 15:17:59;;;;;;;;;;;23.30;85.70;;;;;;5095196;28;19912;-65
2021/08/16 15:20:47;;;;;;;;;;;23.40;86.10;;;;;;5091318;28;19925;-66
2021/08/16 15:23:37;;;;;;;;;;;23.40;86.10;;;;;;5098836;28;19908;-66
2021/08/16 15:26:27;;;;;;;;;;;23.40;86.90;;;;;;5112255;28;19924;-66
2021/08/16 15:29:21;;;;;;;;;;;23.50;86.90;;;;;;5090530;28;19924;-66
2021/08/16 15:32:10;;;;;;;;;;;23.40;87.40;;;;;;5092380;28;19954;-66
2021/08/16 15:35:00;;;;;;;;;;;23.00;87.60;;;;;;5079172;28;19924;-66
2021/08/16 15:37:48;;;;;;;;;;;22.90;88.90;;;;;;5095337;28;19924;-66
2021/08/16 15:40:38;;;;;;;;;;;22.90;88.40;;;;;;5099736;28;19915;-66
2021/08/16 15:43:32;;;;;;;;;;;22.90;88.80;;;;;;5096917;28;19980;-67
2021/08/16 15:46:21;;;;;;;;;;;22.90;88.80;;;;;;5090350;28;19928;-65
2021/08/16 15:49:10;;;;;;;;;;;22.80;87.90;;;;;;5098428;28;19931;-64
2021/08/16 15:52:00;;;;;;;;;;;22.80;88.10;;;;;;5103065;28;19924;-64
2021/08/16 15:54:50;;;;;;;;;;;22.80;88.80;;;;;;5075821;28;19925;-65
2021/08/16 15:57:39;;;;;;;;;;;22.90;88.40;;;;;;5108473;28;19926;-65
2021/08/16 16:00:30;;;;;;;;;;;22.70;87.50;;;;;;5099076;28;19909;-65
2021/08/16 16:03:20;;;;;;;;;;;22.40;87.70;;;;;;5096749;28;19908;-64
2021/08/16 16:06:09;;;;;;;;;;;22.30;89.40;;;;;;5097070;28;19987;-65
2021/08/16 16:08:58;;;;;;;;;;;22.20;89.80;;;;;;5098133;28;19966;-64
2021/08/16 16:11:49;;;;;;;;;;;22.10;90.20;;;;;;5098959;28;19931;-64
2021/08/16 16:14:38;;;;;;;;;;;22.10;90.30;;;;;;5094206;28;19925;-64
2021/08/16 16:17:28;;;;;;;;;;;22.20;90.50;;;;;;5078536;28;20015;-66
2021/08/16 16:20:22;;;;;;;;;;;22.30;90.40;;;;;;5077569;28;19965;-67
2021/08/16 16:23:11;;;;;;;;;;;22.30;90.40;;;;;;5085750;28;20271;-64
2021/08/16 16:26:00;;;;;;;;;;;22.30;90.40;;;;;;5090113;28;19928;-65
2021/08/16 16:28:49;;;;;;;;;;;22.20;90.60;;;;;;5087005;28;19934;-65
2021/08/16 16:31:37;;;;;;;;;;;22.20;91.00;;;;;;5070856;28;19924;-66
2021/08/16 16:34:28;;;;;;;;;;;22.10;90.50;;;;;;5082598;28;19932;-64
2021/08/16 16:37:16;;;;;;;;;;;22.00;91.10;;;;;;5083873;28;20020;-65
2021/08/16 16:40:06;;;;;;;;;;;22.00;91.10;;;;;;5077791;28;19924;-65
2021/08/16 16:42:55;;;;;;;;;;;21.90;90.80;;;;;;5072705;28;19924;-64
2021/08/16 16:45:44;;;;;;;;;;;21.90;90.90;;;;;;5078223;28;19924;-63